createdAt,value
2019-05-09T00:00:19.918Z,63.10
2019-05-09T00:02:47.574Z,63.70
2019-05-09T00:05:15.215Z,63.80
2019-05-09T00:07:43.966Z,63.70
2019-05-09T00:10:14.237Z,62.60
2019-05-09T00:12:43.732Z,62.90
2019-05-09T00:15:13.620Z,62.90
2019-05-09T00:17:43.828Z,62.70
2019-05-09T00:20:21.288Z,61.90
2019-05-09T00:22:48.941Z,62.60
2019-05-09T00:25:16.741Z,63.20
2019-05-09T00:27:44.521Z,62.80
2019-05-09T00:30:13.964Z,62.70
2019-05-09T00:32:43.248Z,63.60
2019-05-09T00:35:33.845Z,63.60
2019-05-09T00:38:04.293Z,63.30
2019-05-09T00:40:34.161Z,63.30
2019-05-09T00:43:03.677Z,63.50
2019-05-09T00:46:05.695Z,63.50
2019-05-09T00:48:55.861Z,63.30
2019-05-09T00:51:23.500Z,63.20
2019-05-09T00:53:53.473Z,63.60
2019-05-09T00:56:20.753Z,64.10
2019-05-09T00:58:48.581Z,64.10
2019-05-09T01:01:16.209Z,64.00
2019-05-09T01:03:43.829Z,63.80
2019-05-09T01:06:13.410Z,63.50
2019-05-09T01:08:41.246Z,63.50
2019-05-09T01:11:12.392Z,63.50
2019-05-09T01:13:38.469Z,63.70
2019-05-09T01:16:06.095Z,64.30
2019-05-09T01:18:34.360Z,63.60
2019-05-09T01:21:03.899Z,63.40
2019-05-09T01:23:34.029Z,63.60
2019-05-09T01:26:03.630Z,63.00
2019-05-09T01:28:30.987Z,63.00
2019-05-09T01:30:58.593Z,62.80
2019-05-09T01:33:44.433Z,63.00
2019-05-09T01:36:14.251Z,62.80
2019-05-09T01:38:43.298Z,62.90
2019-05-09T01:41:26.260Z,63.10
2019-05-09T01:43:40.617Z,63.50
2019-05-09T01:46:08.259Z,63.40
2019-05-09T01:48:35.904Z,63.60
2019-05-09T01:51:03.587Z,63.90
2019-05-09T01:53:34.325Z,64.20
2019-05-09T01:56:03.630Z,64.00
2019-05-09T01:58:34.169Z,63.70
2019-05-09T02:01:03.784Z,63.50
2019-05-09T02:03:33.509Z,63.50
2019-05-09T02:06:03.274Z,63.80
2019-05-09T02:08:30.634Z,63.50
2019-05-09T02:10:58.244Z,63.60
2019-05-09T02:13:25.944Z,63.40
2019-05-09T02:16:03.407Z,63.70
2019-05-09T02:18:50.722Z,63.40
2019-05-09T02:21:18.438Z,63.40
2019-05-09T02:23:46.059Z,63.00
2019-05-09T02:26:13.806Z,63.50
2019-05-09T02:28:43.265Z,63.00
2019-05-09T02:31:11.130Z,62.20
2019-05-09T02:33:38.748Z,62.40
2019-05-09T02:36:09.474Z,62.80
2019-05-09T02:38:38.951Z,62.20
2019-05-09T02:41:08.382Z,62.10
2019-05-09T02:43:38.659Z,62.10
2019-05-09T02:46:18.888Z,62.00
2019-05-09T02:48:49.523Z,62.10
2019-05-09T02:51:18.507Z,61.70
2019-05-09T02:53:48.547Z,61.90
2019-05-09T02:56:18.504Z,61.90
2019-05-09T02:58:58.993Z,61.80
2019-05-09T03:01:33.850Z,62.10
2019-05-09T03:04:01.472Z,62.70
2019-05-09T03:06:29.103Z,62.20
2019-05-09T03:08:59.426Z,62.30
2019-05-09T03:11:28.920Z,62.10
2019-05-09T03:13:58.547Z,62.10
2019-05-09T03:16:25.409Z,62.00
2019-05-09T03:18:53.038Z,62.30
2019-05-09T03:21:29.755Z,61.90
2019-05-09T03:23:59.174Z,61.90
2019-05-09T03:26:30.322Z,61.40
2019-05-09T03:29:13.138Z,61.80
2019-05-09T03:31:41.213Z,61.60
2019-05-09T03:34:09.599Z,61.60
2019-05-09T03:36:38.512Z,61.40
2019-05-09T03:39:08.163Z,60.70
2019-05-09T03:41:35.997Z,60.80
2019-05-09T03:44:03.823Z,60.00
2019-05-09T03:46:50.078Z,59.70
2019-05-09T03:49:18.172Z,59.30
2019-05-09T03:51:48.085Z,59.70
2019-05-09T03:54:15.369Z,59.50
2019-05-09T03:56:47.924Z,58.70
2019-05-09T03:59:17.627Z,58.80
2019-05-09T04:01:47.787Z,58.70
2019-05-09T04:04:14.770Z,58.70
2019-05-09T04:06:42.618Z,58.70
2019-05-09T04:09:10.251Z,58.70
2019-05-09T04:11:38.216Z,58.40
2019-05-09T04:14:11.925Z,58.80
2019-05-09T04:16:41.482Z,58.70
2019-05-09T04:19:27.696Z,58.70
2019-05-09T04:21:57.726Z,58.60
2019-05-09T04:24:27.955Z,59.00
2019-05-09T04:27:02.029Z,59.60
2019-05-09T04:29:29.645Z,60.00
2019-05-09T04:31:57.595Z,60.00
2019-05-09T04:34:27.413Z,60.30
2019-05-09T04:36:54.944Z,60.00
2019-05-09T04:39:23.870Z,59.50
2019-05-09T04:41:54.975Z,60.00
2019-05-09T04:44:37.492Z,60.30
2019-05-09T04:47:05.290Z,59.90
2019-05-09T04:49:39.316Z,60.10
2019-05-09T04:52:02.473Z,59.70
2019-05-09T04:54:30.142Z,59.60
2019-05-09T04:56:57.787Z,59.50
2019-05-09T04:59:25.421Z,60.40
2019-05-09T05:02:00.112Z,60.50
2019-05-09T05:04:28.318Z,60.40
2019-05-09T05:06:57.855Z,60.60
2019-05-09T05:09:27.608Z,60.90
2019-05-09T05:11:55.082Z,59.00
2019-05-09T05:14:22.835Z,59.40
2019-05-09T05:16:53.065Z,59.10
2019-05-09T05:19:21.554Z,59.20
2019-05-09T05:21:49.265Z,59.20
2019-05-09T05:24:38.185Z,59.60
2019-05-09T05:27:08.214Z,59.40
2019-05-09T05:29:35.545Z,59.30
2019-05-09T05:32:05.015Z,59.50
2019-05-09T05:34:40.582Z,59.50
2019-05-09T05:37:08.212Z,60.30
2019-05-09T05:39:37.521Z,59.70
2019-05-09T05:42:05.439Z,61.20
2019-05-09T05:44:33.069Z,60.80
2019-05-09T05:47:28.711Z,59.40
2019-05-09T05:49:57.697Z,59.50
2019-05-09T05:52:27.520Z,60.30
2019-05-09T05:54:54.772Z,60.20
2019-05-09T05:57:22.449Z,59.50
2019-05-09T05:59:50.265Z,60.10
2019-05-09T06:02:17.990Z,60.80
2019-05-09T06:04:45.762Z,60.80
2019-05-09T06:07:13.398Z,60.20
2019-05-09T06:09:41.073Z,59.50
2019-05-09T06:12:08.710Z,59.50
2019-05-09T06:14:37.864Z,59.70
2019-05-09T06:17:07.926Z,60.30
2019-05-09T06:19:37.644Z,59.50
2019-05-09T06:22:04.985Z,60.00
2019-05-09T06:24:32.628Z,62.10
2019-05-09T06:27:00.349Z,61.00
2019-05-09T06:29:28.733Z,60.00
2019-05-09T06:31:58.421Z,60.00
2019-05-09T06:34:27.727Z,59.10
2019-05-09T06:36:58.553Z,59.20
2019-05-09T06:39:25.130Z,58.70
2019-05-09T06:41:52.829Z,58.40
2019-05-09T06:44:47.984Z,58.30
2019-05-09T06:47:38.111Z,58.80
2019-05-09T06:50:08.162Z,60.10
2019-05-09T06:52:37.590Z,60.10
2019-05-09T06:55:05.689Z,60.30
2019-05-09T06:57:33.321Z,60.80
2019-05-09T07:00:01.169Z,60.20
2019-05-09T07:02:42.825Z,60.30
2019-05-09T07:05:29.246Z,60.40
2019-05-09T07:08:10.202Z,60.40
2019-05-09T07:10:37.892Z,61.60
2019-05-09T07:13:07.755Z,60.50
2019-05-09T07:15:35.145Z,61.40
2019-05-09T07:18:02.802Z,62.10
2019-05-09T07:20:30.489Z,61.70
2019-05-09T07:22:58.492Z,60.80
2019-05-09T07:25:34.053Z,60.80
2019-05-09T07:28:01.768Z,60.70
2019-05-09T07:30:50.883Z,60.70
2019-05-09T07:33:31.329Z,60.70
2019-05-09T07:35:58.986Z,60.70
2019-05-09T07:38:32.984Z,60.90
2019-05-09T07:41:00.818Z,61.40
2019-05-09T07:43:28.849Z,62.20
2019-05-09T07:46:11.310Z,62.40
2019-05-09T07:48:39.310Z,62.60
2019-05-09T07:51:07.869Z,62.00
2019-05-09T07:53:37.878Z,62.20
2019-05-09T07:56:07.698Z,61.00
2019-05-09T07:58:37.529Z,60.40
2019-05-09T08:01:08.215Z,61.40
2019-05-09T08:03:35.523Z,61.00
2019-05-09T08:06:03.244Z,59.80
2019-05-09T08:08:30.967Z,60.70
2019-05-09T08:10:58.675Z,60.30
2019-05-09T08:13:28.967Z,61.40
2019-05-09T08:15:58.353Z,62.70
2019-05-09T08:18:28.048Z,64.40
2019-05-09T08:20:57.116Z,62.60
2019-05-09T08:23:27.274Z,63.00
2019-05-09T08:25:54.537Z,63.40
2019-05-09T08:28:22.160Z,63.00
2019-05-09T08:30:49.805Z,63.10
2019-05-09T08:33:18.411Z,64.50
2019-05-09T08:35:52.083Z,64.60
2019-05-09T08:38:17.847Z,62.70
2019-05-09T08:40:45.247Z,62.60
2019-05-09T08:43:13.939Z,63.50
2019-05-09T08:45:41.709Z,62.10
2019-05-09T08:48:09.642Z,64.10
2019-05-09T08:50:50.289Z,61.90
2019-05-09T08:53:18.835Z,62.40
2019-05-09T08:55:47.484Z,61.80
2019-05-09T08:58:15.364Z,63.20
2019-05-09T09:00:42.985Z,62.00
2019-05-09T09:03:10.661Z,63.10
2019-05-09T09:05:38.400Z,62.40
2019-05-09T09:08:08.318Z,61.00
2019-05-09T09:10:38.353Z,61.10
2019-05-09T09:13:08.552Z,62.00
2019-05-09T09:16:02.801Z,61.60
2019-05-09T09:18:05.404Z,60.80
2019-05-09T09:20:33.153Z,61.70
2019-05-09T09:23:00.769Z,61.10
2019-05-09T09:25:28.814Z,62.00
2019-05-09T09:27:58.143Z,61.70
2019-05-09T09:30:28.922Z,61.40
2019-05-09T09:32:58.354Z,61.30
2019-05-09T09:35:27.618Z,61.40
2019-05-09T09:37:54.802Z,61.30
2019-05-09T09:40:22.468Z,61.00
2019-05-09T09:42:50.242Z,60.50
2019-05-09T09:45:18.465Z,60.40
2019-05-09T09:47:48.174Z,59.30
2019-05-09T09:50:17.751Z,59.20
2019-05-09T09:52:45.419Z,61.90
2019-05-09T09:55:13.441Z,60.90
2019-05-09T09:57:41.101Z,58.60
2019-05-09T10:00:34.080Z,58.60
2019-05-09T10:03:01.813Z,57.90
2019-05-09T10:05:29.494Z,58.70
2019-05-09T10:07:58.225Z,58.80
2019-05-09T10:10:34.585Z,57.30
2019-05-09T10:13:04.068Z,59.20
2019-05-09T10:15:38.430Z,59.30
2019-05-09T10:18:21.174Z,59.60
2019-05-09T10:20:53.401Z,59.20
2019-05-09T10:23:21.753Z,56.90
2019-05-09T10:25:49.493Z,59.50
2019-05-09T10:28:21.334Z,55.00
2019-05-09T10:30:48.529Z,55.10
2019-05-09T10:33:17.549Z,55.60
2019-05-09T10:35:47.758Z,56.80
2019-05-09T10:38:14.894Z,57.70
2019-05-09T10:40:42.596Z,57.30
2019-05-09T10:43:44.669Z,59.70
2019-05-09T10:46:51.454Z,59.00
2019-05-09T10:49:08.368Z,58.60
2019-05-09T10:51:35.574Z,60.30
2019-05-09T10:54:03.210Z,60.20
2019-05-09T10:56:30.814Z,60.80
2019-05-09T10:58:58.760Z,61.20
2019-05-09T11:01:29.185Z,62.60
2019-05-09T11:03:59.011Z,64.00
2019-05-09T11:06:28.674Z,63.90
2019-05-09T11:08:58.350Z,63.90
2019-05-09T11:11:28.154Z,63.20
2019-05-09T11:13:55.282Z,64.70
2019-05-09T11:16:22.962Z,64.40
2019-05-09T11:18:50.570Z,64.30
2019-05-09T11:21:19.609Z,63.20
2019-05-09T11:23:48.739Z,63.30
2019-05-09T11:26:17.931Z,64.00
2019-05-09T11:28:45.838Z,64.20
2019-05-09T11:31:13.710Z,64.70
2019-05-09T11:33:41.543Z,65.40
2019-05-09T11:36:09.901Z,65.40
2019-05-09T11:38:43.474Z,65.60
2019-05-09T11:41:08.315Z,65.80
2019-05-09T11:43:38.793Z,65.70
2019-05-09T11:46:10.226Z,65.40
2019-05-09T11:48:38.014Z,65.30
2019-05-09T11:51:04.755Z,65.40
2019-05-09T11:53:32.445Z,64.90
2019-05-09T11:56:00.134Z,67.70
2019-05-09T11:58:28.090Z,67.10
2019-05-09T12:00:55.796Z,68.70
2019-05-09T12:03:23.665Z,69.10
2019-05-09T12:05:51.412Z,69.20
2019-05-09T12:08:21.365Z,68.80
2019-05-09T12:10:50.908Z,67.20
2019-05-09T12:13:18.740Z,70.20
2019-05-09T12:15:48.929Z,68.20
2019-05-09T12:18:16.034Z,70.10
2019-05-09T12:20:43.685Z,69.70
2019-05-09T12:23:11.411Z,70.10
2019-05-09T12:25:39.069Z,70.20
2019-05-09T12:28:07.830Z,69.20
2019-05-09T12:30:37.839Z,68.30
2019-05-09T12:33:05.225Z,70.20
2019-05-09T12:35:32.902Z,68.80
2019-05-09T12:38:00.574Z,69.70
2019-05-09T12:40:28.262Z,70.20
2019-05-09T12:42:55.972Z,68.80
2019-05-09T12:45:23.686Z,70.10
2019-05-09T12:48:06.084Z,70.70
2019-05-09T12:50:20.877Z,69.90
2019-05-09T12:52:48.854Z,70.00
2019-05-09T12:55:17.866Z,70.00
2019-05-09T12:57:45.707Z,70.10
2019-05-09T13:00:15.165Z,70.10
2019-05-09T13:02:42.863Z,70.10
2019-05-09T13:05:10.497Z,69.30
2019-05-09T13:07:42.010Z,70.10
2019-05-09T13:10:08.940Z,70.00
2019-05-09T13:12:38.801Z,70.30
2019-05-09T13:15:08.718Z,72.70
2019-05-09T13:17:38.524Z,70.30
2019-05-09T13:20:08.036Z,72.20
2019-05-09T13:22:36.791Z,70.50
2019-05-09T13:25:04.690Z,69.70
2019-05-09T13:27:32.457Z,69.20
2019-05-09T13:30:00.087Z,69.30
2019-05-09T13:32:28.096Z,69.60
2019-05-09T13:34:57.796Z,69.00
2019-05-09T13:37:29.376Z,67.50
2019-05-09T13:39:55.044Z,68.20
2019-05-09T13:42:22.684Z,68.50
2019-05-09T13:44:50.332Z,69.10
2019-05-09T13:47:19.014Z,68.30
2019-05-09T13:49:48.434Z,68.50
2019-05-09T13:52:17.961Z,67.80
2019-05-09T13:54:48.030Z,68.20
2019-05-09T13:57:15.414Z,67.90
2019-05-09T13:59:43.177Z,67.70
2019-05-09T14:02:10.883Z,69.00
2019-05-09T14:04:39.457Z,69.40
2019-05-09T14:07:08.371Z,68.10
2019-05-09T14:09:38.355Z,68.80
2019-05-09T14:12:05.710Z,68.00
2019-05-09T14:14:33.383Z,68.50
2019-05-09T14:17:01.039Z,69.60
2019-05-09T14:19:39.946Z,68.30
2019-05-09T14:21:58.756Z,69.20
2019-05-09T14:24:27.931Z,70.20
2019-05-09T14:26:58.271Z,69.40
2019-05-09T14:29:30.886Z,69.40
2019-05-09T14:31:55.553Z,69.80
2019-05-09T14:34:23.204Z,69.80
2019-05-09T14:36:50.837Z,70.30
2019-05-09T14:39:18.958Z,70.10
2019-05-09T14:41:47.249Z,70.30
2019-05-09T14:44:14.982Z,70.30
2019-05-09T14:46:43.059Z,70.40
2019-05-09T14:49:10.751Z,71.20
2019-05-09T14:51:38.416Z,71.00
2019-05-09T14:54:08.384Z,70.50
2019-05-09T14:56:41.129Z,70.50
2019-05-09T14:59:05.817Z,70.50
2019-05-09T15:01:33.597Z,70.50
2019-05-09T15:04:01.231Z,70.50
2019-05-09T15:06:28.860Z,71.50
2019-05-09T15:08:58.105Z,70.60
2019-05-09T15:11:28.217Z,70.50
2019-05-09T15:13:55.676Z,70.00
2019-05-09T15:16:23.357Z,70.60
2019-05-09T15:18:51.038Z,70.50
2019-05-09T15:21:19.193Z,70.50
2019-05-09T15:23:48.143Z,70.50
2019-05-09T15:26:17.673Z,70.50
2019-05-09T15:28:45.538Z,70.30
2019-05-09T15:31:13.199Z,70.50
2019-05-09T15:33:40.839Z,70.50
2019-05-09T15:36:09.174Z,70.50
2019-05-09T15:38:37.951Z,70.70
2019-05-09T15:41:12.008Z,70.60
2019-05-09T15:43:35.379Z,71.00
2019-05-09T15:46:14.963Z,70.60
2019-05-09T15:48:42.641Z,70.50
2019-05-09T15:51:10.321Z,71.40
2019-05-09T15:53:38.163Z,71.40
2019-05-09T15:56:07.888Z,70.50
2019-05-09T15:58:37.908Z,70.60
2019-05-09T16:01:08.237Z,70.30
2019-05-09T16:03:38.077Z,71.20
2019-05-09T16:06:08.881Z,71.50
2019-05-09T16:08:38.136Z,70.70
2019-05-09T16:11:05.537Z,70.70
2019-05-09T16:13:33.218Z,70.20
2019-05-09T16:16:00.897Z,69.60
2019-05-09T16:18:28.920Z,69.70
2019-05-09T16:20:58.098Z,69.30
2019-05-09T16:23:28.876Z,69.20
2019-05-09T16:25:55.573Z,69.90
2019-05-09T16:28:23.245Z,70.30
2019-05-09T16:30:50.873Z,70.70
2019-05-09T16:33:18.538Z,70.60
2019-05-09T16:35:48.318Z,70.70
2019-05-09T16:38:15.825Z,70.60
2019-05-09T16:40:43.607Z,70.60
2019-05-09T16:43:11.238Z,70.50
2019-05-09T16:45:38.882Z,69.20
2019-05-09T16:48:11.073Z,69.90
2019-05-09T16:50:40.155Z,69.60
2019-05-09T16:53:08.669Z,69.00
2019-05-09T16:55:38.121Z,68.80
2019-05-09T16:58:08.475Z,68.30
2019-05-09T17:00:44.258Z,68.10
2019-05-09T17:03:12.021Z,68.40
2019-05-09T17:05:39.819Z,69.40
2019-05-09T17:08:08.204Z,68.80
2019-05-09T17:10:36.127Z,67.80
2019-05-09T17:13:04.002Z,67.70
2019-05-09T17:15:31.755Z,66.50
2019-05-09T17:17:59.469Z,66.80
2019-05-09T17:20:52.489Z,66.80
2019-05-09T17:23:21.548Z,67.10
2019-05-09T17:25:49.485Z,66.60
2019-05-09T17:28:17.857Z,66.80
2019-05-09T17:30:45.672Z,66.40
2019-05-09T17:33:14.329Z,66.20
2019-05-09T17:35:42.013Z,66.40
2019-05-09T17:38:09.633Z,66.40
2019-05-09T17:40:38.976Z,66.70
2019-05-09T17:43:08.255Z,66.60
2019-05-09T17:45:39.525Z,66.50
2019-05-09T17:48:08.414Z,66.20
2019-05-09T17:50:38.090Z,65.90
2019-05-09T17:53:05.232Z,65.50
2019-05-09T17:55:32.892Z,66.10
2019-05-09T17:58:00.595Z,65.80
2019-05-09T18:00:29.043Z,66.10
2019-05-09T18:02:57.961Z,65.50
2019-05-09T18:05:25.914Z,65.30
2019-05-09T18:07:53.619Z,64.60
2019-05-09T18:10:21.371Z,64.30
2019-05-09T18:12:49.058Z,64.00
2019-05-09T18:15:18.671Z,64.10
2019-05-09T18:17:47.919Z,64.20
2019-05-09T18:20:17.729Z,63.60
2019-05-09T18:22:47.732Z,63.20
2019-05-09T18:25:15.252Z,63.40
2019-05-09T18:27:42.989Z,62.80
2019-05-09T18:30:11.049Z,61.90
2019-05-09T18:32:43.573Z,62.50
2019-05-09T18:35:16.489Z,62.40
2019-05-09T18:37:44.155Z,62.20
2019-05-09T18:40:12.214Z,61.60
2019-05-09T18:42:39.861Z,61.60
2019-05-09T18:45:10.046Z,61.40
2019-05-09T18:47:37.825Z,61.50
2019-05-09T18:50:06.562Z,61.40
2019-05-09T18:52:34.233Z,61.40
2019-05-09T18:55:03.206Z,61.40
2019-05-09T18:57:30.832Z,62.10
2019-05-09T18:59:58.491Z,61.80
2019-05-09T19:02:26.129Z,62.40
2019-05-09T19:04:53.868Z,62.20
2019-05-09T19:07:22.868Z,61.90
2019-05-09T19:09:50.868Z,61.70
2019-05-09T19:12:18.517Z,62.30
2019-05-09T19:14:46.991Z,61.80
2019-05-09T19:17:39.934Z,61.40
2019-05-09T19:20:17.255Z,61.50
2019-05-09T19:22:44.981Z,61.60
2019-05-09T19:25:12.833Z,61.80
2019-05-09T19:27:40.740Z,62.50
2019-05-09T19:30:08.482Z,63.00
2019-05-09T19:32:36.171Z,63.20
2019-05-09T19:35:03.884Z,63.40
2019-05-09T19:37:31.653Z,62.90
2019-05-09T19:39:59.393Z,62.60
2019-05-09T19:42:27.153Z,62.20
2019-05-09T19:44:54.848Z,62.00
2019-05-09T19:47:22.563Z,61.80
2019-05-09T19:49:50.206Z,62.00
2019-05-09T19:52:17.913Z,61.30
2019-05-09T19:54:45.558Z,61.60
2019-05-09T19:57:13.234Z,61.90
2019-05-09T19:59:40.915Z,62.70
2019-05-09T20:02:08.630Z,63.00
2019-05-09T20:04:36.305Z,63.80
2019-05-09T20:07:03.933Z,64.30
2019-05-09T20:09:41.311Z,64.50
2019-05-09T20:12:31.659Z,64.60
2019-05-09T20:14:59.546Z,64.40
2019-05-09T20:17:27.258Z,64.50
2019-05-09T20:19:55.321Z,65.00
2019-05-09T20:22:25.241Z,65.00
2019-05-09T20:24:53.047Z,65.30
2019-05-09T20:27:20.804Z,65.30
2019-05-09T20:29:48.659Z,65.50
2019-05-09T20:32:16.444Z,66.10
2019-05-09T20:34:44.101Z,65.50
2019-05-09T20:37:11.842Z,65.50
2019-05-09T20:39:39.541Z,65.60
2019-05-09T20:42:07.292Z,65.50
2019-05-09T20:44:34.974Z,65.90
2019-05-09T20:47:02.714Z,66.30
2019-05-09T20:49:30.388Z,66.30
2019-05-09T20:51:58.058Z,66.00
2019-05-09T20:54:25.741Z,65.50
2019-05-09T20:56:53.421Z,65.50
2019-05-09T20:59:21.107Z,65.60
2019-05-09T21:01:48.958Z,65.50
2019-05-09T21:04:16.689Z,65.50
2019-05-09T21:06:44.366Z,65.50
2019-05-09T21:09:12.129Z,65.40
2019-05-09T21:11:39.830Z,65.50
2019-05-09T21:14:07.481Z,65.40
2019-05-09T21:16:35.173Z,64.70
2019-05-09T21:19:02.949Z,65.20
2019-05-09T21:21:30.733Z,65.50
2019-05-09T21:23:59.517Z,65.90
2019-05-09T21:26:27.180Z,66.50
2019-05-09T21:28:54.850Z,66.40
2019-05-09T21:31:22.497Z,66.20
2019-05-09T21:33:50.142Z,66.00
2019-05-09T21:36:17.826Z,66.50
2019-05-09T21:38:45.440Z,67.10
2019-05-09T21:41:13.090Z,65.70
2019-05-09T21:43:40.842Z,65.70
2019-05-09T21:46:08.602Z,66.10
2019-05-09T21:48:38.493Z,65.30
2019-05-09T21:51:05.913Z,65.00
2019-05-09T21:53:41.118Z,64.60
2019-05-09T21:56:03.323Z,64.30
2019-05-09T21:58:30.966Z,64.10
2019-05-09T22:00:59.505Z,63.80
2019-05-09T22:03:27.344Z,63.80
2019-05-09T22:05:54.981Z,63.60
2019-05-09T22:08:22.660Z,63.40
2019-05-09T22:10:50.297Z,63.50
2019-05-09T22:13:18.067Z,63.40
2019-05-09T22:15:45.723Z,63.30
2019-05-09T22:18:13.385Z,63.50
2019-05-09T22:20:41.022Z,63.60
2019-05-09T22:23:08.733Z,63.50
2019-05-09T22:25:36.353Z,63.70
2019-05-09T22:28:04.079Z,63.70
2019-05-09T22:30:31.693Z,63.20
2019-05-09T22:32:59.333Z,62.60
2019-05-09T22:35:26.974Z,62.40
2019-05-09T22:37:54.628Z,61.90
2019-05-09T22:40:22.245Z,62.40
2019-05-09T22:42:49.889Z,62.60
2019-05-09T22:45:18.310Z,62.90
2019-05-09T22:47:45.961Z,62.90
2019-05-09T22:50:13.765Z,63.10
2019-05-09T22:52:41.421Z,63.00
2019-05-09T22:55:09.393Z,63.00
2019-05-09T22:57:37.038Z,63.00
2019-05-09T23:00:05.507Z,62.90
2019-05-09T23:02:35.133Z,63.00
2019-05-09T23:05:02.976Z,62.90
2019-05-09T23:07:30.714Z,62.90
2019-05-09T23:09:58.369Z,62.50
2019-05-09T23:12:25.997Z,62.40
2019-05-09T23:14:53.659Z,62.60
2019-05-09T23:17:21.296Z,62.60
2019-05-09T23:19:49.337Z,62.30
2019-05-09T23:22:17.334Z,62.00
2019-05-09T23:24:45.003Z,62.00
2019-05-09T23:27:15.289Z,62.20
2019-05-09T23:29:42.952Z,61.80
2019-05-09T23:32:30.722Z,61.90
2019-05-09T23:34:59.446Z,61.80
2019-05-09T23:37:27.133Z,62.00
2019-05-09T23:39:54.778Z,62.10
2019-05-09T23:42:22.424Z,61.70
2019-05-09T23:44:51.052Z,61.50
2019-05-09T23:47:18.697Z,61.80
2019-05-09T23:49:47.335Z,61.30
2019-05-09T23:52:14.975Z,61.40
2019-05-09T23:55:01.937Z,61.70
2019-05-09T23:57:47.598Z,61.70
